sensor_id;sensor_type;location;lat;lon;timestamp;pressure;altitude;pressure_sealevel;temperature;humidity
35307;BME280;21420;52.196;21.416;2022-11-18T00:00:39;99260.28;;;0.28;67.22
35307;BME280;21420;52.196;21.416;2022-11-18T00:03:05;99255.98;;;0.27;67.19
35307;BME280;21420;52.196;21.416;2022-11-18T00:05:31;99249.84;;;0.24;67.14
35307;BME280;21420;52.196;21.416;2022-11-18T00:07:57;99248.28;;;0.20;67.09
35307;BME280;21420;52.196;21.416;2022-11-18T00:10:23;99245.90;;;0.18;67.14
35307;BME280;21420;52.196;21.416;2022-11-18T00:12:49;99248.32;;;0.17;67.11
35307;BME280;21420;52.196;21.416;2022-11-18T00:15:34;99247.53;;;0.17;67.14
35307;BME280;21420;52.196;21.416;2022-11-18T00:18:00;99248.64;;;0.16;67.16
35307;BME280;21420;52.196;21.416;2022-11-18T00:20:26;99248.66;;;0.13;67.15
35307;BME280;21420;52.196;21.416;2022-11-18T00:22:52;99243.31;;;0.11;67.08
35307;BME280;21420;52.196;21.416;2022-11-18T00:25:18;99240.71;;;0.06;67.04
35307;BME280;21420;52.196;21.416;2022-11-18T00:27:45;99243.16;;;0.05;67.09
35307;BME280;21420;52.196;21.416;2022-11-18T00:30:11;99247.67;;;0.07;67.18
35307;BME280;21420;52.196;21.416;2022-11-18T00:32:37;99249.30;;;0.08;67.16
35307;BME280;21420;52.196;21.416;2022-11-18T00:35:04;99255.75;;;0.07;67.12
35307;BME280;21420;52.196;21.416;2022-11-18T00:37:31;99248.55;;;0.05;67.10
35307;BME280;21420;52.196;21.416;2022-11-18T00:39:58;99252.54;;;0.07;67.17
35307;BME280;21420;52.196;21.416;2022-11-18T00:42:24;99244.47;;;0.07;67.20
35307;BME280;21420;52.196;21.416;2022-11-18T00:45:09;99242.28;;;0.09;67.22
35307;BME280;21420;52.196;21.416;2022-11-18T00:47:35;99243.87;;;0.10;67.26
35307;BME280;21420;52.196;21.416;2022-11-18T00:50:01;99239.27;;;0.11;67.24
35307;BME280;21420;52.196;21.416;2022-11-18T00:52:28;99236.85;;;0.12;67.23
35307;BME280;21420;52.196;21.416;2022-11-18T00:54:54;99231.70;;;0.13;67.23
35307;BME280;21420;52.196;21.416;2022-11-18T00:57:20;99228.17;;;0.15;67.24
35307;BME280;21420;52.196;21.416;2022-11-18T00:59:46;99226.59;;;0.14;67.18
35307;BME280;21420;52.196;21.416;2022-11-18T01:02:12;99229.02;;;0.13;67.18
35307;BME280;21420;52.196;21.416;2022-11-18T01:04:38;99232.50;;;0.13;67.17
35307;BME280;21420;52.196;21.416;2022-11-18T01:07:05;99230.91;;;0.12;67.15
35307;BME280;21420;52.196;21.416;2022-11-18T01:09:31;99225.53;;;0.12;67.20
35307;BME280;21420;52.196;21.416;2022-11-18T01:11:57;99225.48;;;0.15;67.20
35307;BME280;21420;52.196;21.416;2022-11-18T01:14:42;99221.16;;;0.16;67.18
35307;BME280;21420;52.196;21.416;2022-11-18T01:17:08;99227.09;;;0.16;67.14
35307;BME280;21420;52.196;21.416;2022-11-18T01:19:34;99228.17;;;0.15;67.15
35307;BME280;21420;52.196;21.416;2022-11-18T01:22:01;99229.52;;;0.15;67.14
35307;BME280;21420;52.196;21.416;2022-11-18T01:24:29;99220.94;;;0.13;67.12
35307;BME280;21420;52.196;21.416;2022-11-18T01:26:57;99221.45;;;0.15;67.19
35307;BME280;21420;52.196;21.416;2022-11-18T01:29:23;99211.73;;;0.16;67.24
35307;BME280;21420;52.196;21.416;2022-11-18T01:31:49;99218.70;;;0.17;67.22
35307;BME280;21420;52.196;21.416;2022-11-18T01:34:15;99209.79;;;0.19;67.20
35307;BME280;21420;52.196;21.416;2022-11-18T01:36:42;99213.83;;;0.19;67.19
35307;BME280;21420;52.196;21.416;2022-11-18T01:39:08;99206.81;;;0.21;67.23
35307;BME280;21420;52.196;21.416;2022-11-18T01:41:34;99207.55;;;0.24;67.24
35307;BME280;21420;52.196;21.416;2022-11-18T01:44:52;99207.83;;;0.25;67.22
35307;BME280;21420;52.196;21.416;2022-11-18T01:46:32;99209.13;;;0.28;67.25
35307;BME280;21420;52.196;21.416;2022-11-18T01:49:09;99200.20;;;0.30;67.26
35307;BME280;21420;52.196;21.416;2022-11-18T01:51:38;99201.28;;;0.29;67.18
35307;BME280;21420;52.196;21.416;2022-11-18T01:54:19;99197.52;;;0.30;67.19
35307;BME280;21420;52.196;21.416;2022-11-18T01:56:51;99195.61;;;0.30;67.21
35307;BME280;21420;52.196;21.416;2022-11-18T01:59:21;99186.73;;;0.30;67.16
35307;BME280;21420;52.196;21.416;2022-11-18T02:01:51;99188.61;;;0.29;67.14
35307;BME280;21420;52.196;21.416;2022-11-18T02:04:20;99189.16;;;0.29;67.14
35307;BME280;21420;52.196;21.416;2022-11-18T02:06:48;99178.95;;;0.28;67.15
35307;BME280;21420;52.196;21.416;2022-11-18T02:09:14;99181.88;;;0.29;67.14
35307;BME280;21420;52.196;21.416;2022-11-18T02:11:43;99181.14;;;0.26;67.10
35307;BME280;21420;52.196;21.416;2022-11-18T02:14:25;99187.86;;;0.26;67.15
35307;BME280;21420;52.196;21.416;2022-11-18T02:17:15;99191.91;;;0.26;67.15
35307;BME280;21420;52.196;21.416;2022-11-18T02:22:50;99191.95;;;0.24;67.18
35307;BME280;21420;52.196;21.416;2022-11-18T02:34:55;99194.94;;;0.22;67.27
35307;BME280;21420;52.196;21.416;2022-11-18T02:40:26;99196.78;;;0.24;67.33
35307;BME280;21420;52.196;21.416;2022-11-18T02:43:07;99194.36;;;0.25;67.29
35307;BME280;21420;52.196;21.416;2022-11-18T02:45:40;99203.23;;;0.26;67.29
35307;BME280;21420;52.196;21.416;2022-11-18T02:48:10;99196.22;;;0.27;67.31
35307;BME280;21420;52.196;21.416;2022-11-18T02:50:43;99191.62;;;0.28;67.28
35307;BME280;21420;52.196;21.416;2022-11-18T02:53:13;99190.56;;;0.26;67.19
35307;BME280;21420;52.196;21.416;2022-11-18T02:55:41;99193.30;;;0.24;67.15
35307;BME280;21420;52.196;21.416;2022-11-18T02:58:10;99189.26;;;0.24;67.20
35307;BME280;21420;52.196;21.416;2022-11-18T03:00:38;99189.31;;;0.21;67.15
35307;BME280;21420;52.196;21.416;2022-11-18T03:03:31;99192.28;;;0.19;67.18
35307;BME280;21420;52.196;21.416;2022-11-18T03:09:08;99186.91;;;0.19;67.18
35307;BME280;21420;52.196;21.416;2022-11-18T03:20:24;99174.22;;;0.23;67.27
35307;BME280;21420;52.196;21.416;2022-11-18T03:26:02;99168.78;;;0.25;67.27
35307;BME280;21420;52.196;21.416;2022-11-18T03:29:43;99168.27;;;0.23;67.24
35307;BME280;21420;52.196;21.416;2022-11-18T03:31:26;99173.61;;;0.26;67.31
35307;BME280;21420;52.196;21.416;2022-11-18T03:34:10;99173.80;;;0.29;67.37
35307;BME280;21420;52.196;21.416;2022-11-18T03:36:47;99163.30;;;0.30;67.31
35307;BME280;21420;52.196;21.416;2022-11-18T03:39:16;99161.66;;;0.32;67.31
35307;BME280;21420;52.196;21.416;2022-11-18T03:41:48;99158.46;;;0.30;67.25
35307;BME280;21420;52.196;21.416;2022-11-18T03:44:22;99157.91;;;0.30;67.25
35307;BME280;21420;52.196;21.416;2022-11-18T03:46:58;99154.71;;;0.28;67.23
35307;BME280;21420;52.196;21.416;2022-11-18T03:49:34;99150.96;;;0.27;67.21
35307;BME280;21420;52.196;21.416;2022-11-18T03:52:12;99152.86;;;0.26;67.22
35307;BME280;21420;52.196;21.416;2022-11-18T03:54:45;99155.82;;;0.27;67.22
35307;BME280;21420;52.196;21.416;2022-11-18T03:57:15;99143.20;;;0.25;67.25
35307;BME280;21420;52.196;21.416;2022-11-18T04:00:05;99139.69;;;0.25;67.23
35307;BME280;21420;52.196;21.416;2022-11-18T04:02:35;99144.88;;;0.21;67.21
35307;BME280;21420;52.196;21.416;2022-11-18T04:05:04;99150.55;;;0.19;67.19
35307;BME280;21420;52.196;21.416;2022-11-18T04:07:55;99150.61;;;0.17;67.16
35307;BME280;21420;52.196;21.416;2022-11-18T04:10:26;99144.16;;;0.15;67.19
35307;BME280;21420;52.196;21.416;2022-11-18T04:13:25;99151.72;;;0.16;67.17
35307;BME280;21420;52.196;21.416;2022-11-18T04:15:53;99146.06;;;0.15;67.21
35307;BME280;21420;52.196;21.416;2022-11-18T04:18:20;99146.16;;;0.10;67.13
35307;BME280;21420;52.196;21.416;2022-11-18T04:20:46;99151.03;;;0.08;67.17
35307;BME280;21420;52.196;21.416;2022-11-18T04:23:12;99148.34;;;0.08;67.19
35307;BME280;21420;52.196;21.416;2022-11-18T04:25:38;99147.79;;;0.08;67.19
35307;BME280;21420;52.196;21.416;2022-11-18T04:28:05;99145.98;;;0.04;67.11
35307;BME280;21420;52.196;21.416;2022-11-18T04:30:31;99151.97;;;0.01;67.14
35307;BME280;21420;52.196;21.416;2022-11-18T04:32:58;99154.66;;;0.01;67.15
35307;BME280;21420;52.196;21.416;2022-11-18T04:35:24;99152.55;;;-0.03;67.08
35307;BME280;21420;52.196;21.416;2022-11-18T04:37:52;99154.78;;;-0.07;67.07
35307;BME280;21420;52.196;21.416;2022-11-18T04:40:19;99155.09;;;-0.09;67.12
35307;BME280;21420;52.196;21.416;2022-11-18T04:42:46;99151.05;;;-0.09;67.20
35307;BME280;21420;52.196;21.416;2022-11-18T04:45:12;99158.35;;;-0.12;67.12
35307;BME280;21420;52.196;21.416;2022-11-18T04:47:38;99148.19;;;-0.15;67.11
35307;BME280;21420;52.196;21.416;2022-11-18T04:50:05;99149.36;;;-0.21;67.06
35307;BME280;21420;52.196;21.416;2022-11-18T04:52:31;99150.98;;;-0.23;67.13
35307;BME280;21420;52.196;21.416;2022-11-18T04:54:57;99149.64;;;-0.23;67.18
35307;BME280;21420;52.196;21.416;2022-11-18T04:57:23;99149.41;;;-0.24;67.18
35307;BME280;21420;52.196;21.416;2022-11-18T04:59:50;99150.75;;;-0.24;67.20
35307;BME280;21420;52.196;21.416;2022-11-18T05:02:16;99151.86;;;-0.25;67.22
35307;BME280;21420;52.196;21.416;2022-11-18T05:04:42;99151.87;;;-0.27;67.18
35307;BME280;21420;52.196;21.416;2022-11-18T05:07:11;99151.08;;;-0.28;67.23
35307;BME280;21420;52.196;21.416;2022-11-18T05:09:38;99153.81;;;-0.30;67.21
35307;BME280;21420;52.196;21.416;2022-11-18T05:12:05;99152.23;;;-0.31;67.28
35307;BME280;21420;52.196;21.416;2022-11-18T05:14:49;99146.02;;;-0.32;67.27
35307;BME280;21420;52.196;21.416;2022-11-18T05:17:16;99144.72;;;-0.34;67.29
35307;BME280;21420;52.196;21.416;2022-11-18T05:19:42;99150.89;;;-0.34;67.36
35307;BME280;21420;52.196;21.416;2022-11-18T05:22:08;99147.41;;;-0.34;67.37
35307;BME280;21420;52.196;21.416;2022-11-18T05:24:35;99146.39;;;-0.38;67.31
35307;BME280;21420;52.196;21.416;2022-11-18T05:27:01;99146.75;;;-0.43;67.32
35307;BME280;21420;52.196;21.416;2022-11-18T05:29:27;99148.63;;;-0.43;67.36
35307;BME280;21420;52.196;21.416;2022-11-18T05:31:53;99146.53;;;-0.46;67.35
35307;BME280;21420;52.196;21.416;2022-11-18T05:34:19;99149.77;;;-0.47;67.35
35307;BME280;21420;52.196;21.416;2022-11-18T05:36:45;99147.13;;;-0.49;67.38
35307;BME280;21420;52.196;21.416;2022-11-18T05:39:11;99140.13;;;-0.50;67.40
35307;BME280;21420;52.196;21.416;2022-11-18T05:41:38;99147.41;;;-0.51;67.42
35307;BME280;21420;52.196;21.416;2022-11-18T05:44:22;99146.10;;;-0.53;67.44
35307;BME280;21420;52.196;21.416;2022-11-18T05:46:48;99145.55;;;-0.53;67.48
35307;BME280;21420;52.196;21.416;2022-11-18T05:49:14;99146.94;;;-0.55;67.51
35307;BME280;21420;52.196;21.416;2022-11-18T05:51:40;99147.48;;;-0.56;67.51
35307;BME280;21420;52.196;21.416;2022-11-18T05:54:08;99138.91;;;-0.58;67.49
35307;BME280;21420;52.196;21.416;2022-11-18T05:59:05;99148.41;;;-0.63;67.51
35307;BME280;21420;52.196;21.416;2022-11-18T06:06:47;99146.49;;;-0.81;67.46
35307;BME280;21420;52.196;21.416;2022-11-18T06:09:16;99151.88;;;-0.81;67.55
35307;BME280;21420;52.196;21.416;2022-11-18T06:11:48;99156.97;;;-0.80;67.60
35307;BME280;21420;52.196;21.416;2022-11-18T06:14:19;99154.28;;;-0.80;67.65
35307;BME280;21420;52.196;21.416;2022-11-18T06:16:53;99154.03;;;-0.81;67.59
35307;BME280;21420;52.196;21.416;2022-11-18T06:19:21;99152.78;;;-0.89;67.49
35307;BME280;21420;52.196;21.416;2022-11-18T06:21:48;99154.99;;;-0.93;67.56
35307;BME280;21420;52.196;21.416;2022-11-18T06:24:15;99157.36;;;-0.89;67.71
35307;BME280;21420;52.196;21.416;2022-11-18T06:26:43;99153.30;;;-0.87;67.74
35307;BME280;21420;52.196;21.416;2022-11-18T06:29:12;99158.67;;;-0.87;67.77
35307;BME280;21420;52.196;21.416;2022-11-18T06:31:39;99157.88;;;-0.87;67.74
35307;BME280;21420;52.196;21.416;2022-11-18T06:34:05;99157.60;;;-0.88;67.79
35307;BME280;21420;52.196;21.416;2022-11-18T06:36:31;99163.80;;;-0.88;67.80
35307;BME280;21420;52.196;21.416;2022-11-18T06:39:03;99157.33;;;-0.87;67.83
35307;BME280;21420;52.196;21.416;2022-11-18T06:41:30;99155.94;;;-0.84;67.90
35307;BME280;21420;52.196;21.416;2022-11-18T06:43:56;99158.86;;;-0.80;67.95
35307;BME280;21420;52.196;21.416;2022-11-18T06:46:23;99162.86;;;-0.78;67.98
35307;BME280;21420;52.196;21.416;2022-11-18T06:49:07;99159.06;;;-0.77;67.99
35307;BME280;21420;52.196;21.416;2022-11-18T06:51:34;99155.11;;;-0.82;67.87
35307;BME280;21420;52.196;21.416;2022-11-18T06:54:00;99159.42;;;-0.84;67.90
35307;BME280;21420;52.196;21.416;2022-11-18T06:56:26;99165.34;;;-0.84;67.93
35307;BME280;21420;52.196;21.416;2022-11-18T06:58:54;99162.73;;;-0.89;67.84
35307;BME280;21420;52.196;21.416;2022-11-18T07:01:24;99166.77;;;-0.89;67.92
35307;BME280;21420;52.196;21.416;2022-11-18T07:03:53;99171.59;;;-0.89;67.98
35307;BME280;21420;52.196;21.416;2022-11-18T07:06:23;99165.14;;;-0.88;67.97
35307;BME280;21420;52.196;21.416;2022-11-18T07:08:50;99167.32;;;-0.90;67.96
35307;BME280;21420;52.196;21.416;2022-11-18T07:11:20;99171.91;;;-0.93;67.94
35307;BME280;21420;52.196;21.416;2022-11-18T07:13:48;99176.22;;;-0.92;68.04
35307;BME280;21420;52.196;21.416;2022-11-18T07:16:23;99171.55;;;-0.86;68.16
35307;BME280;21420;52.196;21.416;2022-11-18T07:18:52;99179.58;;;-0.81;68.19
35307;BME280;21420;52.196;21.416;2022-11-18T07:21:21;99170.69;;;-0.81;68.10
35307;BME280;21420;52.196;21.416;2022-11-18T07:23:48;99174.44;;;-0.80;68.17
35307;BME280;21420;52.196;21.416;2022-11-18T07:26:15;99180.80;;;-0.73;68.30
35307;BME280;21420;52.196;21.416;2022-11-18T07:28:41;99178.30;;;-0.67;68.35
35307;BME280;21420;52.196;21.416;2022-11-18T07:31:10;99177.39;;;-0.60;68.41
35307;BME280;21420;52.196;21.416;2022-11-18T07:33:39;99180.78;;;-0.52;68.47
35307;BME280;21420;52.196;21.416;2022-11-18T07:36:08;99184.42;;;-0.45;68.46
35307;BME280;21420;52.196;21.416;2022-11-18T07:38:37;99181.37;;;-0.38;68.51
35307;BME280;21420;52.196;21.416;2022-11-18T07:41:19;99185.34;;;-0.33;68.48
35307;BME280;21420;52.196;21.416;2022-11-18T07:43:44;99190.92;;;-0.30;68.48
35307;BME280;21420;52.196;21.416;2022-11-18T07:46:16;99187.67;;;-0.27;68.46
35307;BME280;21420;52.196;21.416;2022-11-18T07:48:48;99189.48;;;-0.22;68.52
35307;BME280;21420;52.196;21.416;2022-11-18T07:51:21;99193.94;;;-0.15;68.55
35307;BME280;21420;52.196;21.416;2022-11-18T07:53:45;99190.69;;;-0.14;68.53
35307;BME280;21420;52.196;21.416;2022-11-18T07:56:13;99188.46;;;-0.10;68.54
35307;BME280;21420;52.196;21.416;2022-11-18T07:58:40;99188.22;;;-0.11;68.47
35307;BME280;21420;52.196;21.416;2022-11-18T08:01:15;99196.03;;;-0.12;68.42
35307;BME280;21420;52.196;21.416;2022-11-18T08:03:44;99195.28;;;-0.15;68.38
35307;BME280;21420;52.196;21.416;2022-11-18T08:06:12;99193.19;;;-0.18;68.33
35307;BME280;21420;52.196;21.416;2022-11-18T08:08:40;99205.07;;;-0.22;68.31
35307;BME280;21420;52.196;21.416;2022-11-18T08:11:09;99201.78;;;-0.18;68.47
35307;BME280;21420;52.196;21.416;2022-11-18T08:13:37;99203.91;;;-0.15;68.43
35307;BME280;21420;52.196;21.416;2022-11-18T08:16:04;99207.13;;;-0.16;68.42
35307;BME280;21420;52.196;21.416;2022-11-18T08:18:32;99205.95;;;-0.10;68.57
35307;BME280;21420;52.196;21.416;2022-11-18T08:21:02;99210.69;;;-0.02;68.67
35307;BME280;21420;52.196;21.416;2022-11-18T08:23:29;99210.30;;;0.05;68.71
35307;BME280;21420;52.196;21.416;2022-11-18T08:26:04;99212.91;;;0.10;68.71
35307;BME280;21420;52.196;21.416;2022-11-18T08:28:35;99217.73;;;0.11;68.59
35307;BME280;21420;52.196;21.416;2022-11-18T08:31:10;99220.19;;;0.10;68.49
35307;BME280;21420;52.196;21.416;2022-11-18T08:33:39;99213.00;;;0.05;68.46
35307;BME280;21420;52.196;21.416;2022-11-18T08:36:12;99217.36;;;0.01;68.39
35307;BME280;21420;52.196;21.416;2022-11-18T08:38:43;99218.20;;;-0.01;68.45
35307;BME280;21420;52.196;21.416;2022-11-18T08:41:12;99214.44;;;0.00;68.55
35307;BME280;21420;52.196;21.416;2022-11-18T08:43:40;99221.08;;;0.05;68.65
35307;BME280;21420;52.196;21.416;2022-11-18T08:46:06;99216.98;;;0.08;68.66
35307;BME280;21420;52.196;21.416;2022-11-18T08:48:36;99225.81;;;0.11;68.66
35307;BME280;21420;52.196;21.416;2022-11-18T08:51:03;99228.44;;;0.16;68.70
35307;BME280;21420;52.196;21.416;2022-11-18T08:53:29;99228.44;;;0.16;68.59
35307;BME280;21420;52.196;21.416;2022-11-18T08:55:57;99222.19;;;0.18;68.67
35307;BME280;21420;52.196;21.416;2022-11-18T08:58:25;99231.05;;;0.21;68.62
35307;BME280;21420;52.196;21.416;2022-11-18T09:00:52;99229.80;;;0.13;68.45
35307;BME280;21420;52.196;21.416;2022-11-18T09:03:19;99232.30;;;0.10;68.44
35307;BME280;21420;52.196;21.416;2022-11-18T09:05:46;99228.55;;;0.08;68.48
35307;BME280;21420;52.196;21.416;2022-11-18T09:08:12;99227.47;;;0.09;68.53
35307;BME280;21420;52.196;21.416;2022-11-18T09:10:40;99234.20;;;0.09;68.49
35307;BME280;21420;52.196;21.416;2022-11-18T09:13:06;99228.83;;;0.07;68.49
35307;BME280;21420;52.196;21.416;2022-11-18T09:15:33;99233.70;;;0.07;68.49
35307;BME280;21420;52.196;21.416;2022-11-18T09:17:59;99235.88;;;0.05;68.50
35307;BME280;21420;52.196;21.416;2022-11-18T09:20:25;99238.81;;;0.06;68.51
35307;BME280;21420;52.196;21.416;2022-11-18T09:22:52;99228.05;;;0.06;68.58
35307;BME280;21420;52.196;21.416;2022-11-18T09:25:18;99229.34;;;0.09;68.60
35307;BME280;21420;52.196;21.416;2022-11-18T09:27:44;99235.83;;;0.08;68.53
35307;BME280;21420;52.196;21.416;2022-11-18T09:30:12;99234.73;;;0.09;68.52
35307;BME280;21420;52.196;21.416;2022-11-18T09:32:38;99232.59;;;0.08;68.56
35307;BME280;21420;52.196;21.416;2022-11-18T09:35:05;99230.91;;;0.12;68.62
35307;BME280;21420;52.196;21.416;2022-11-18T09:37:32;99233.52;;;0.17;68.66
35307;BME280;21420;52.196;21.416;2022-11-18T09:39:58;99232.17;;;0.17;68.62
35307;BME280;21420;52.196;21.416;2022-11-18T09:45:12;99233.47;;;0.20;68.56
35307;BME280;21420;52.196;21.416;2022-11-18T09:47:49;99228.91;;;0.20;68.57
35307;BME280;21420;52.196;21.416;2022-11-18T09:50:19;99230.53;;;0.19;68.55
35307;BME280;21420;52.196;21.416;2022-11-18T09:52:51;99230.25;;;0.20;68.51
35307;BME280;21420;52.196;21.416;2022-11-18T09:55:18;99220.00;;;0.20;68.52
35307;BME280;21420;52.196;21.416;2022-11-18T09:57:53;99224.88;;;0.18;68.43
35307;BME280;21420;52.196;21.416;2022-11-18T10:00:28;99225.11;;;0.22;68.55
35307;BME280;21420;52.196;21.416;2022-11-18T10:03:42;99218.64;;;0.23;68.49
35307;BME280;21420;52.196;21.416;2022-11-18T10:08:44;99212.70;;;0.23;68.52
35307;BME280;21420;52.196;21.416;2022-11-18T10:11:18;99217.75;;;0.27;68.62
35307;BME280;21420;52.196;21.416;2022-11-18T10:14:04;99218.23;;;0.29;68.62
35307;BME280;21420;52.196;21.416;2022-11-18T10:22:19;99225.83;;;0.27;68.50
35307;BME280;21420;52.196;21.416;2022-11-18T10:24:51;99225.11;;;0.22;68.41
35307;BME280;21420;52.196;21.416;2022-11-18T10:27:22;99225.94;;;0.19;68.42
35307;BME280;21420;52.196;21.416;2022-11-18T10:29:54;99226.73;;;0.20;68.46
35307;BME280;21420;52.196;21.416;2022-11-18T10:32:22;99231.28;;;0.22;68.50
35307;BME280;21420;52.196;21.416;2022-11-18T10:34:52;99228.59;;;0.22;68.51
35307;BME280;21420;52.196;21.416;2022-11-18T10:39:59;99232.06;;;0.25;68.43
35307;BME280;21420;52.196;21.416;2022-11-18T10:42:29;99231.22;;;0.27;68.44
35307;BME280;21420;52.196;21.416;2022-11-18T10:48:09;99239.11;;;0.37;68.66
35307;BME280;21420;52.196;21.416;2022-11-18T10:50:45;99238.03;;;0.38;68.46
35307;BME280;21420;52.196;21.416;2022-11-18T10:53:35;99242.36;;;0.37;68.48
35307;BME280;21420;52.196;21.416;2022-11-18T10:56:05;99248.30;;;0.36;68.42
35307;BME280;21420;52.196;21.416;2022-11-18T10:58:35;99245.60;;;0.36;68.47
35307;BME280;21420;52.196;21.416;2022-11-18T11:01:13;99240.13;;;0.41;68.57
35307;BME280;21420;52.196;21.416;2022-11-18T11:06:40;99249.02;;;0.56;68.74
35307;BME280;21420;52.196;21.416;2022-11-18T11:12:01;99248.05;;;0.66;68.56
35307;BME280;21420;52.196;21.416;2022-11-18T11:14:56;99244.92;;;0.75;68.69
35307;BME280;21420;52.196;21.416;2022-11-18T11:20:22;99250.88;;;0.88;68.59
35307;BME280;21420;52.196;21.416;2022-11-18T11:22:49;99252.86;;;0.96;68.64
35307;BME280;21420;52.196;21.416;2022-11-18T11:25:26;99257.17;;;0.97;68.46
35307;BME280;21420;52.196;21.416;2022-11-18T11:27:56;99260.94;;;0.96;68.42
35307;BME280;21420;52.196;21.416;2022-11-18T11:30:29;99259.47;;;1.04;68.59
35307;BME280;21420;52.196;21.416;2022-11-18T11:36:46;99268.45;;;1.13;68.44
35307;BME280;21420;52.196;21.416;2022-11-18T11:48:40;99262.84;;;1.10;68.26
35307;BME280;21420;52.196;21.416;2022-11-18T11:51:35;99264.14;;;0.98;68.12
35307;BME280;21420;52.196;21.416;2022-11-18T12:00:11;99269.08;;;0.94;68.16
35307;BME280;21420;52.196;21.416;2022-11-18T12:05:53;99277.91;;;0.83;68.10
35307;BME280;21420;52.196;21.416;2022-11-18T12:08:25;99271.22;;;0.80;68.07
35307;BME280;21420;52.196;21.416;2022-11-18T12:11:19;99270.19;;;0.79;68.08
35307;BME280;21420;52.196;21.416;2022-11-18T12:13:59;99270.57;;;0.72;67.95
35307;BME280;21420;52.196;21.416;2022-11-18T12:16:52;99276.03;;;0.67;67.99
35307;BME280;21420;52.196;21.416;2022-11-18T12:19:21;99269.52;;;0.71;68.08
35307;BME280;21420;52.196;21.416;2022-11-18T12:21:53;99272.95;;;0.74;68.11
35307;BME280;21420;52.196;21.416;2022-11-18T12:24:40;99273.45;;;0.76;68.15
35307;BME280;21420;52.196;21.416;2022-11-18T12:29:56;99276.31;;;0.82;68.15
35307;BME280;21420;52.196;21.416;2022-11-18T12:40:44;99287.72;;;0.93;68.08
35307;BME280;21420;52.196;21.416;2022-11-18T12:51:52;99282.67;;;1.02;68.07
35307;BME280;21420;52.196;21.416;2022-11-18T12:54:25;99275.48;;;0.98;67.94
35307;BME280;21420;52.196;21.416;2022-11-18T12:57:19;99272.57;;;0.94;67.86
35307;BME280;21420;52.196;21.416;2022-11-18T12:59:49;99271.20;;;0.97;67.95
35307;BME280;21420;52.196;21.416;2022-11-18T13:02:24;99276.09;;;0.95;67.84
35307;BME280;21420;52.196;21.416;2022-11-18T13:05:18;99276.27;;;0.98;67.94
35307;BME280;21420;52.196;21.416;2022-11-18T13:07:53;99270.14;;;0.95;67.83
35307;BME280;21420;52.196;21.416;2022-11-18T13:10:50;99284.97;;;0.95;67.84
35307;BME280;21420;52.196;21.416;2022-11-18T13:13:23;99281.43;;;0.97;67.90
35307;BME280;21420;52.196;21.416;2022-11-18T13:15:54;99278.86;;;1.03;67.97
35307;BME280;21420;52.196;21.416;2022-11-18T13:18:52;99283.78;;;1.01;67.82
35307;BME280;21420;52.196;21.416;2022-11-18T13:21:22;99279.63;;;0.93;67.69
35307;BME280;21420;52.196;21.416;2022-11-18T13:24:16;99281.03;;;0.90;67.67
35307;BME280;21420;52.196;21.416;2022-11-18T13:26:45;99280.55;;;0.86;67.69
35307;BME280;21420;52.196;21.416;2022-11-18T13:32:16;99285.63;;;0.73;67.52
35307;BME280;21420;52.196;21.416;2022-11-18T13:34:51;99282.94;;;0.73;67.70
35307;BME280;21420;52.196;21.416;2022-11-18T13:37:26;99278.16;;;0.70;67.60
35307;BME280;21420;52.196;21.416;2022-11-18T13:39:54;99278.83;;;0.62;67.49
35307;BME280;21420;52.196;21.416;2022-11-18T13:45:00;99283.03;;;0.52;67.48
35307;BME280;21420;52.196;21.416;2022-11-18T13:47:49;99285.31;;;0.45;67.40
35307;BME280;21420;52.196;21.416;2022-11-18T13:50:32;99282.20;;;0.37;67.38
35307;BME280;21420;52.196;21.416;2022-11-18T13:55:58;99283.73;;;0.27;67.40
35307;BME280;21420;52.196;21.416;2022-11-18T13:58:35;99287.26;;;0.25;67.49
35307;BME280;21420;52.196;21.416;2022-11-18T14:01:17;99281.09;;;0.22;67.45
35307;BME280;21420;52.196;21.416;2022-11-18T14:03:48;99282.81;;;0.15;67.41
35307;BME280;21420;52.196;21.416;2022-11-18T14:06:29;99294.18;;;0.12;67.41
35307;BME280;21420;52.196;21.416;2022-11-18T14:14:37;99291.02;;;0.08;67.56
35307;BME280;21420;52.196;21.416;2022-11-18T14:17:17;99295.38;;;0.04;67.50
35307;BME280;21420;52.196;21.416;2022-11-18T14:19:48;99298.63;;;0.03;67.58
35307;BME280;21420;52.196;21.416;2022-11-18T14:22:25;99299.18;;;0.03;67.61
35307;BME280;21420;52.196;21.416;2022-11-18T14:24:58;99301.60;;;0.02;67.60
35307;BME280;21420;52.196;21.416;2022-11-18T14:27:40;99310.27;;;-0.02;67.53
35307;BME280;21420;52.196;21.416;2022-11-18T14:30:33;99306.84;;;-0.07;67.52
35307;BME280;21420;52.196;21.416;2022-11-18T14:33:18;99304.42;;;-0.06;67.64
35307;BME280;21420;52.196;21.416;2022-11-18T14:35:56;99308.97;;;-0.04;67.68
35307;BME280;21420;52.196;21.416;2022-11-18T14:38:42;99316.77;;;-0.05;67.68
35307;BME280;21420;52.196;21.416;2022-11-18T14:41:13;99319.77;;;-0.07;67.62
35307;BME280;21420;52.196;21.416;2022-11-18T14:43:41;99321.17;;;-0.12;67.55
35307;BME280;21420;52.196;21.416;2022-11-18T14:46:15;99321.80;;;-0.17;67.46
35307;BME280;21420;52.196;21.416;2022-11-18T14:48:44;99330.47;;;-0.23;67.48
35307;BME280;21420;52.196;21.416;2022-11-18T14:51:14;99331.85;;;-0.26;67.48
35307;BME280;21420;52.196;21.416;2022-11-18T14:53:42;99335.17;;;-0.31;67.51
35307;BME280;21420;52.196;21.416;2022-11-18T14:56:29;99338.62;;;-0.28;67.61
35307;BME280;21420;52.196;21.416;2022-11-18T14:58:56;99339.45;;;-0.30;67.57
35307;BME280;21420;52.196;21.416;2022-11-18T15:01:23;99339.20;;;-0.31;67.58
35307;BME280;21420;52.196;21.416;2022-11-18T15:03:52;99343.83;;;-0.37;67.51
35307;BME280;21420;52.196;21.416;2022-11-18T15:06:20;99337.70;;;-0.40;67.52
35307;BME280;21420;52.196;21.416;2022-11-18T15:08:48;99341.56;;;-0.49;67.42
35307;BME280;21420;52.196;21.416;2022-11-18T15:11:16;99346.22;;;-0.57;67.42
35307;BME280;21420;52.196;21.416;2022-11-18T15:13:44;99344.16;;;-0.62;67.41
35307;BME280;21420;52.196;21.416;2022-11-18T15:16:23;99360.87;;;-0.68;67.43
35307;BME280;21420;52.196;21.416;2022-11-18T15:18:56;99351.48;;;-0.71;67.49